Terminal Aerodrome Forecast
Issued by NWS

Home | Current Version | Previous Version | Text Only | Print | Product List | Glossary Off
Versions: 1 2 3 4 5 6 7 8 9 10 11 12 13 14 15

000
FTUS43 KABR 110522
TAFMBG
TAF
KMBG 110522Z 1106/1206 34011KT P6SM SCT250
     FM110800 32021G30KT P6SM BKN100
     FM111200 32022G32KT P6SM OVC025
     FM111500 33020G30KT P6SM OVC015
     FM120100 33010KT P6SM OVC020
     FM120300 32008KT P6SM BKN025=

USA.gov is the U.S. government's official web portal to all federal, state and local government web resources and services.